Time;durP1;ratioP1;P1;durP2;ratioP2;P2;SDS_P1;SDS_P2;PMS_P1;PMS_P2;Temp;Humidity;BMP_temperature;BMP_pressure;BME280_temperature;BME280_humidity;BME280_pressure;Samples;Min_cycle;Max_cycle;Signal;HPM_P1;HPM_P2
2021/07/15 00:00:52;;;;;;;;;;;14.10;99.90;;;;;;4915960;29;19973;-74
2021/07/15 00:03:20;;;;;;;;;;;14.10;99.90;;;;;;4914950;29;20314;-74
2021/07/15 00:05:53;;;;;;;;;;;14.10;99.90;;;;;;4929592;29;19927;-73
2021/07/15 00:08:26;;;;;;;;;;;14.00;99.90;;;;;;4933404;29;20465;-74
2021/07/15 00:10:59;;;;;;;;;;;14.10;99.90;;;;;;4933650;29;19927;-73
2021/07/15 00:13:31;;;;;;;;;;;14.00;99.90;;;;;;4933649;29;20033;-73
2021/07/15 00:16:07;;;;;;;;;;;14.00;99.90;;;;;;4918415;29;19931;-73
2021/07/15 00:18:41;;;;;;;;;;;14.00;99.90;;;;;;4933649;29;20301;-73
2021/07/15 00:21:14;;;;;;;;;;;14.00;99.90;;;;;;4934658;29;19927;-73
2021/07/15 00:23:41;;;;;;;;;;;14.00;99.90;;;;;;4933696;29;19927;-72
2021/07/15 00:26:13;;;;;;;;;;;14.00;99.90;;;;;;4933364;29;19927;-73
2021/07/15 00:28:45;;;;;;;;;;;14.00;99.90;;;;;;4934825;29;19977;-73
2021/07/15 00:31:12;;;;;;;;;;;14.00;99.90;;;;;;4934401;29;19933;-73
2021/07/15 00:33:45;;;;;;;;;;;14.00;99.90;;;;;;4934720;29;19934;-72
2021/07/15 00:36:12;;;;;;;;;;;14.00;99.90;;;;;;4933426;29;19927;-73
2021/07/15 00:38:44;;;;;;;;;;;14.00;99.90;;;;;;4918285;29;19948;-73
2021/07/15 00:41:15;;;;;;;;;;;14.00;99.90;;;;;;4934300;29;20033;-73
2021/07/15 00:43:47;;;;;;;;;;;14.00;99.90;;;;;;4933280;29;20378;-73
2021/07/15 00:46:19;;;;;;;;;;;13.90;99.90;;;;;;4934564;29;19933;-73
2021/07/15 00:48:51;;;;;;;;;;;13.90;99.90;;;;;;4933636;29;19927;-73
2021/07/15 00:51:22;;;;;;;;;;;14.00;99.90;;;;;;4917956;29;20026;-73
2021/07/15 00:53:54;;;;;;;;;;;13.90;99.90;;;;;;4934578;29;20409;-73
2021/07/15 00:56:21;;;;;;;;;;;13.90;99.90;;;;;;4933324;29;19927;-73
2021/07/15 00:58:52;;;;;;;;;;;13.90;99.90;;;;;;4934820;29;20022;-73
2021/07/15 01:01:24;;;;;;;;;;;13.90;99.90;;;;;;4932561;29;19927;-73
2021/07/15 01:03:56;;;;;;;;;;;13.90;99.90;;;;;;4933667;29;20353;-73
2021/07/15 01:06:27;;;;;;;;;;;13.90;99.90;;;;;;4934189;29;20052;-73
2021/07/15 01:08:54;;;;;;;;;;;13.90;99.90;;;;;;4933056;29;19969;-73
2021/07/15 01:11:41;;;;;;;;;;;13.90;99.90;;;;;;4934143;29;19933;-73
2021/07/15 01:14:27;;;;;;;;;;;13.90;99.90;;;;;;4932831;29;20461;-73
2021/07/15 01:16:59;;;;;;;;;;;13.90;99.90;;;;;;4953179;28;19933;-73
2021/07/15 01:19:49;;;;;;;;;;;13.90;99.90;;;;;;4952941;28;20029;-73
2021/07/15 01:22:23;;;;;;;;;;;13.90;99.90;;;;;;4936156;29;19927;-74
2021/07/15 01:25:01;;;;;;;;;;;13.90;99.90;;;;;;4951417;28;19927;-74
2021/07/15 01:27:50;;;;;;;;;;;13.90;99.90;;;;;;4951881;29;20057;-74
2021/07/15 01:30:23;;;;;;;;;;;13.90;99.90;;;;;;4937430;29;20365;-74
2021/07/15 01:33:06;;;;;;;;;;;14.00;99.90;;;;;;4956875;28;20025;-73
2021/07/15 01:35:40;;;;;;;;;;;14.00;99.90;;;;;;4956624;29;19992;-74
2021/07/15 01:38:07;;;;;;;;;;;14.00;99.90;;;;;;4939631;29;20017;-74
2021/07/15 01:40:42;;;;;;;;;;;14.00;99.90;;;;;;4939469;29;20014;-74
2021/07/15 01:43:11;;;;;;;;;;;14.00;99.90;;;;;;4954807;28;19947;-74
2021/07/15 01:45:38;;;;;;;;;;;14.00;99.90;;;;;;4956385;28;19969;-74
2021/07/15 01:48:05;;;;;;;;;;;14.00;99.90;;;;;;4955187;29;19974;-74
2021/07/15 01:50:33;;;;;;;;;;;14.00;99.90;;;;;;4955228;29;20017;-74
2021/07/15 01:53:00;;;;;;;;;;;14.00;99.90;;;;;;4954800;28;20021;-73
2021/07/15 01:55:27;;;;;;;;;;;13.90;99.90;;;;;;4939174;29;19958;-74
2021/07/15 01:57:59;;;;;;;;;;;14.00;99.90;;;;;;4956238;28;19926;-74
2021/07/15 02:00:31;;;;;;;;;;;13.90;99.90;;;;;;4955037;29;19942;-74
2021/07/15 02:02:58;;;;;;;;;;;13.90;99.90;;;;;;4938777;28;19966;-74
2021/07/15 02:05:31;;;;;;;;;;;13.90;99.90;;;;;;4956241;28;19933;-74
2021/07/15 02:08:04;;;;;;;;;;;14.00;99.90;;;;;;4955197;29;20473;-74
2021/07/15 02:10:36;;;;;;;;;;;14.00;99.90;;;;;;4954774;29;20013;-74
2021/07/15 02:13:08;;;;;;;;;;;14.00;99.90;;;;;;4954409;28;19970;-74
2021/07/15 02:15:37;;;;;;;;;;;14.00;99.90;;;;;;4956409;28;20024;-74
2021/07/15 02:18:10;;;;;;;;;;;14.00;99.90;;;;;;4939801;29;20003;-74
2021/07/15 02:20:37;;;;;;;;;;;14.00;99.90;;;;;;4956155;28;20035;-74
2021/07/15 02:23:05;;;;;;;;;;;14.00;99.90;;;;;;4954335;28;20461;-74
2021/07/15 02:25:37;;;;;;;;;;;13.90;99.90;;;;;;4939456;29;19937;-74
2021/07/15 02:28:10;;;;;;;;;;;13.90;99.90;;;;;;4954817;29;19927;-74
2021/07/15 02:30:37;;;;;;;;;;;13.90;99.90;;;;;;4938693;29;20021;-74
2021/07/15 02:33:08;;;;;;;;;;;13.90;99.90;;;;;;4954200;28;19957;-74
2021/07/15 02:35:36;;;;;;;;;;;13.90;99.90;;;;;;4955689;28;19934;-74
2021/07/15 02:38:05;;;;;;;;;;;13.80;99.90;;;;;;4954420;29;20017;-74
2021/07/15 02:40:37;;;;;;;;;;;13.80;99.90;;;;;;4955616;28;19933;-74
2021/07/15 02:43:09;;;;;;;;;;;13.80;99.90;;;;;;4938706;28;19927;-74
2021/07/15 02:45:41;;;;;;;;;;;13.80;99.90;;;;;;4954313;29;20010;-74
2021/07/15 02:48:08;;;;;;;;;;;13.80;99.90;;;;;;4938513;29;20381;-74
2021/07/15 02:50:34;;;;;;;;;;;13.80;99.90;;;;;;4938320;29;20021;-74
2021/07/15 02:53:01;;;;;;;;;;;13.80;99.90;;;;;;4953773;28;20024;-74
2021/07/15 02:55:28;;;;;;;;;;;13.80;99.90;;;;;;4954094;29;19970;-74
2021/07/15 02:58:10;;;;;;;;;;;13.70;99.90;;;;;;4954217;29;20373;-74
2021/07/15 03:00:53;;;;;;;;;;;13.70;99.90;;;;;;4954111;29;19926;-74
2021/07/15 03:03:31;;;;;;;;;;;13.80;99.90;;;;;;4953684;28;20369;-74
2021/07/15 03:06:13;;;;;;;;;;;13.70;99.90;;;;;;4938956;29;20358;-74
2021/07/15 03:08:50;;;;;;;;;;;13.80;99.90;;;;;;4954975;28;20025;-74
2021/07/15 03:11:18;;;;;;;;;;;13.80;99.90;;;;;;4953540;29;20377;-74
2021/07/15 03:13:45;;;;;;;;;;;13.80;99.90;;;;;;4954945;28;20021;-74
2021/07/15 03:16:17;;;;;;;;;;;13.80;99.90;;;;;;4954810;28;19937;-74
2021/07/15 03:18:48;;;;;;;;;;;13.80;99.90;;;;;;4954969;28;19990;-74
2021/07/15 03:21:21;;;;;;;;;;;13.80;99.90;;;;;;4953340;29;19930;-74
2021/07/15 03:23:48;;;;;;;;;;;13.80;99.90;;;;;;4953447;28;20029;-74
2021/07/15 03:26:15;;;;;;;;;;;13.80;99.90;;;;;;4954773;29;20041;-75
2021/07/15 03:28:48;;;;;;;;;;;13.70;99.90;;;;;;4953677;29;19930;-75
2021/07/15 03:31:15;;;;;;;;;;;13.60;99.90;;;;;;4937292;29;20493;-74
2021/07/15 03:33:47;;;;;;;;;;;13.70;99.90;;;;;;4937937;29;20329;-74
2021/07/15 03:36:14;;;;;;;;;;;13.70;99.90;;;;;;4953278;29;20356;-74
2021/07/15 03:38:41;;;;;;;;;;;13.60;99.90;;;;;;4953247;29;20021;-74
2021/07/15 03:41:14;;;;;;;;;;;13.60;99.90;;;;;;4953092;29;19926;-75
2021/07/15 03:43:42;;;;;;;;;;;13.60;99.90;;;;;;4953170;29;19981;-74
2021/07/15 03:46:14;;;;;;;;;;;13.60;99.90;;;;;;4953112;29;19976;-74
2021/07/15 03:48:46;;;;;;;;;;;13.60;99.90;;;;;;4953251;29;19927;-74
2021/07/15 03:51:18;;;;;;;;;;;13.60;99.90;;;;;;4953701;28;19965;-74
2021/07/15 03:53:50;;;;;;;;;;;13.60;99.90;;;;;;4953302;28;19965;-74
2021/07/15 03:56:22;;;;;;;;;;;13.60;99.90;;;;;;4937220;29;19932;-74
2021/07/15 03:58:55;;;;;;;;;;;13.50;99.90;;;;;;4937176;29;19940;-74
2021/07/15 04:01:22;;;;;;;;;;;13.60;99.90;;;;;;4952174;29;19947;-74
2021/07/15 04:03:53;;;;;;;;;;;13.50;99.90;;;;;;4952290;29;20385;-74
2021/07/15 04:06:26;;;;;;;;;;;13.50;99.90;;;;;;4938060;29;20380;-75
2021/07/15 04:08:59;;;;;;;;;;;13.50;99.90;;;;;;4957588;29;19976;-74
2021/07/15 04:11:27;;;;;;;;;;;13.50;99.90;;;;;;4951824;29;20420;-74
2021/07/15 04:14:03;;;;;;;;;;;13.50;99.90;;;;;;4932243;29;20302;-73
2021/07/15 04:16:51;;;;;;;;;;;13.50;99.90;;;;;;4926035;29;20382;-74
2021/07/15 04:19:18;;;;;;;;;;;13.50;99.90;;;;;;4922553;29;19930;-74
2021/07/15 04:21:45;;;;;;;;;;;13.40;99.90;;;;;;4913355;29;19977;-75
2021/07/15 04:24:17;;;;;;;;;;;13.40;99.90;;;;;;4912968;29;20409;-75
2021/07/15 04:26:44;;;;;;;;;;;13.40;99.90;;;;;;4913217;29;19927;-74
2021/07/15 04:29:12;;;;;;;;;;;13.40;99.90;;;;;;4914338;29;19962;-74
2021/07/15 04:31:58;;;;;;;;;;;13.50;99.90;;;;;;4912994;29;20030;-75
2021/07/15 04:34:30;;;;;;;;;;;13.40;99.90;;;;;;4913568;29;20362;-74
2021/07/15 04:37:02;;;;;;;;;;;13.50;99.90;;;;;;4914945;29;20386;-78
2021/07/15 04:39:29;;;;;;;;;;;13.50;99.90;;;;;;4914611;29;19929;-75
2021/07/15 04:41:59;;;;;;;;;;;13.50;99.90;;;;;;4913423;29;20364;-75
2021/07/15 04:44:31;;;;;;;;;;;13.50;99.90;;;;;;4898661;29;19934;-74
2021/07/15 04:47:00;;;;;;;;;;;13.60;99.90;;;;;;4912653;29;20014;-74
2021/07/15 04:49:28;;;;;;;;;;;13.60;99.90;;;;;;4912634;29;20037;-75
2021/07/15 04:52:01;;;;;;;;;;;13.60;99.90;;;;;;4913268;29;20434;-74
2021/07/15 04:54:28;;;;;;;;;;;13.60;99.90;;;;;;4898206;29;19958;-74
2021/07/15 04:56:55;;;;;;;;;;;13.60;99.90;;;;;;4912965;29;20414;-74
2021/07/15 04:59:28;;;;;;;;;;;13.60;99.90;;;;;;4913657;29;19938;-74
2021/07/15 05:01:59;;;;;;;;;;;13.60;99.90;;;;;;4915394;29;20390;-74
2021/07/15 05:04:26;;;;;;;;;;;13.60;99.90;;;;;;4921554;29;20000;-74
2021/07/15 05:06:58;;;;;;;;;;;13.60;99.90;;;;;;4936632;29;20025;-74
2021/07/15 05:09:29;;;;;;;;;;;13.60;99.90;;;;;;4935943;29;19966;-74
2021/07/15 05:11:56;;;;;;;;;;;13.60;99.90;;;;;;4935334;29;19927;-75
2021/07/15 05:14:23;;;;;;;;;;;13.50;99.90;;;;;;4935784;29;20371;-73
2021/07/15 05:16:49;;;;;;;;;;;13.50;99.90;;;;;;4920051;29;19927;-74
2021/07/15 05:19:16;;;;;;;;;;;13.60;99.90;;;;;;4935465;29;20025;-74
2021/07/15 05:21:43;;;;;;;;;;;13.60;99.90;;;;;;4933850;29;19934;-74
2021/07/15 05:24:14;;;;;;;;;;;13.60;99.90;;;;;;4916419;29;20379;-74
2021/07/15 05:26:46;;;;;;;;;;;13.60;99.90;;;;;;4901956;29;20025;-74
2021/07/15 05:29:13;;;;;;;;;;;13.60;99.90;;;;;;4917090;29;19966;-75
2021/07/15 05:31:44;;;;;;;;;;;13.60;99.90;;;;;;4923165;29;19933;-75
2021/07/15 05:34:12;;;;;;;;;;;13.70;99.90;;;;;;4909893;29;19927;-74
2021/07/15 05:36:43;;;;;;;;;;;13.70;99.90;;;;;;4918654;29;20017;-74
2021/07/15 05:39:10;;;;;;;;;;;13.60;99.90;;;;;;4921367;29;19935;-74
2021/07/15 05:41:42;;;;;;;;;;;13.60;99.90;;;;;;4916014;29;19927;-74
2021/07/15 05:44:14;;;;;;;;;;;13.60;99.90;;;;;;4915297;29;19942;-74
2021/07/15 05:46:45;;;;;;;;;;;13.60;99.90;;;;;;4916199;29;19973;-74
2021/07/15 05:49:12;;;;;;;;;;;13.60;99.90;;;;;;4900550;29;19927;-75
2021/07/15 05:51:46;;;;;;;;;;;13.50;99.90;;;;;;4916212;29;19933;-75
2021/07/15 05:54:14;;;;;;;;;;;13.50;99.90;;;;;;4899719;29;20021;-74
2021/07/15 05:56:41;;;;;;;;;;;13.50;99.90;;;;;;4921908;29;19927;-75
2021/07/15 05:59:07;;;;;;;;;;;13.50;99.90;;;;;;4928550;29;20227;-74
2021/07/15 06:01:34;;;;;;;;;;;13.50;99.90;;;;;;4935543;29;20362;-74
2021/07/15 06:04:01;;;;;;;;;;;13.50;99.90;;;;;;4935288;29;19927;-75
2021/07/15 06:06:32;;;;;;;;;;;13.40;99.90;;;;;;4920525;29;19926;-74
2021/07/15 06:08:59;;;;;;;;;;;13.50;99.90;;;;;;4936774;29;19961;-74
2021/07/15 06:11:26;;;;;;;;;;;13.50;99.90;;;;;;4935153;29;20452;-75
2021/07/15 06:13:57;;;;;;;;;;;13.60;99.90;;;;;;4935384;29;20026;-75
2021/07/15 06:16:29;;;;;;;;;;;13.60;99.90;;;;;;4928282;29;19926;-74
2021/07/15 06:19:01;;;;;;;;;;;13.60;99.90;;;;;;4954665;29;19953;-75
2021/07/15 06:21:28;;;;;;;;;;;13.70;99.90;;;;;;4954137;29;19973;-74
2021/07/15 06:24:00;;;;;;;;;;;13.70;99.90;;;;;;4933854;29;20016;-74
2021/07/15 06:26:27;;;;;;;;;;;13.70;99.90;;;;;;4935723;29;19973;-75
2021/07/15 06:28:58;;;;;;;;;;;13.70;99.90;;;;;;4919850;29;20317;-74
2021/07/15 06:31:30;;;;;;;;;;;13.80;99.90;;;;;;4935871;29;20025;-75
2021/07/15 06:33:57;;;;;;;;;;;13.80;99.90;;;;;;4936319;29;19926;-75
2021/07/15 06:36:24;;;;;;;;;;;13.80;99.90;;;;;;4934972;29;19974;-75
2021/07/15 06:38:55;;;;;;;;;;;13.90;99.90;;;;;;4936413;29;19974;-75
2021/07/15 06:41:27;;;;;;;;;;;14.00;99.90;;;;;;4934151;29;19926;-74
2021/07/15 06:44:00;;;;;;;;;;;14.10;99.90;;;;;;4934431;29;20402;-75
2021/07/15 06:46:27;;;;;;;;;;;14.10;99.90;;;;;;4918953;29;19977;-75
2021/07/15 06:48:54;;;;;;;;;;;14.10;99.90;;;;;;4919135;29;20026;-75
2021/07/15 06:51:26;;;;;;;;;;;14.10;99.90;;;;;;4919286;29;19926;-75
2021/07/15 06:53:53;;;;;;;;;;;14.10;99.90;;;;;;4935839;29;20017;-75
2021/07/15 06:56:24;;;;;;;;;;;14.20;99.90;;;;;;4934613;29;19927;-74
2021/07/15 06:58:51;;;;;;;;;;;14.20;99.90;;;;;;4918672;29;19966;-75
2021/07/15 07:01:23;;;;;;;;;;;14.30;99.90;;;;;;4919084;29;20021;-75
2021/07/15 07:03:54;;;;;;;;;;;14.30;99.90;;;;;;4934613;29;19933;-75
2021/07/15 07:06:21;;;;;;;;;;;14.30;99.90;;;;;;4910816;29;20029;-74
2021/07/15 07:08:53;;;;;;;;;;;14.40;99.90;;;;;;4916984;29;19951;-74
2021/07/15 07:11:24;;;;;;;;;;;14.30;99.90;;;;;;4899034;29;20026;-74
2021/07/15 07:13:56;;;;;;;;;;;14.30;99.90;;;;;;4915768;29;19927;-74
2021/07/15 07:16:22;;;;;;;;;;;14.30;99.90;;;;;;4933211;29;19974;-74
2021/07/15 07:18:54;;;;;;;;;;;14.40;99.90;;;;;;4934598;29;19927;-75
2021/07/15 07:21:26;;;;;;;;;;;14.50;99.90;;;;;;4918395;29;20403;-74
2021/07/15 07:23:52;;;;;;;;;;;14.50;99.90;;;;;;4935208;29;20555;-74
2021/07/15 07:26:19;;;;;;;;;;;14.50;99.90;;;;;;4934236;29;19969;-75
2021/07/15 07:28:46;;;;;;;;;;;14.50;99.90;;;;;;4934370;29;20018;-75
2021/07/15 07:31:13;;;;;;;;;;;14.60;99.90;;;;;;4933454;29;20542;-74
2021/07/15 07:33:40;;;;;;;;;;;14.60;99.90;;;;;;4929981;29;19931;-74
2021/07/15 07:36:12;;;;;;;;;;;14.70;99.90;;;;;;4913163;29;19927;-75
2021/07/15 07:38:39;;;;;;;;;;;14.80;99.90;;;;;;4899457;29;20033;-75
2021/07/15 07:41:10;;;;;;;;;;;14.90;99.90;;;;;;4914032;29;19927;-74
2021/07/15 07:43:37;;;;;;;;;;;14.90;99.90;;;;;;4914173;29;19934;-75
2021/07/15 07:46:04;;;;;;;;;;;14.80;99.90;;;;;;4898844;29;19959;-75
2021/07/15 07:48:31;;;;;;;;;;;14.70;99.90;;;;;;4922087;29;19927;-75
2021/07/15 07:50:58;;;;;;;;;;;14.60;99.90;;;;;;4929158;29;20131;-75
2021/07/15 07:53:25;;;;;;;;;;;14.60;99.90;;;;;;4933762;29;20374;-74
2021/07/15 07:55:53;;;;;;;;;;;14.70;99.90;;;;;;4933708;29;19958;-74
2021/07/15 07:58:20;;;;;;;;;;;14.70;99.90;;;;;;4934912;29;19931;-75
2021/07/15 08:00:52;;;;;;;;;;;14.80;99.90;;;;;;4933423;29;19930;-75
2021/07/15 08:03:19;;;;;;;;;;;14.90;99.90;;;;;;4933538;29;20461;-74
2021/07/15 08:05:46;;;;;;;;;;;14.80;99.90;;;;;;4917893;29;20042;-75
2021/07/15 08:08:14;;;;;;;;;;;14.90;99.90;;;;;;4933750;29;19950;-74
2021/07/15 08:10:45;;;;;;;;;;;14.90;99.90;;;;;;4933718;29;20485;-75
2021/07/15 08:13:17;;;;;;;;;;;14.80;99.90;;;;;;4933173;29;19970;-74
2021/07/15 08:15:49;;;;;;;;;;;14.80;99.90;;;;;;4914384;29;20021;-74
2021/07/15 08:18:16;;;;;;;;;;;14.90;99.90;;;;;;4898587;29;19927;-74
2021/07/15 08:20:42;;;;;;;;;;;14.90;99.90;;;;;;4914393;29;19927;-74
2021/07/15 08:23:14;;;;;;;;;;;14.90;99.90;;;;;;4914236;29;19934;-74
2021/07/15 08:25:46;;;;;;;;;;;15.00;99.90;;;;;;4914167;29;19931;-74
2021/07/15 08:28:13;;;;;;;;;;;15.10;99.90;;;;;;4914650;29;20029;-75
2021/07/15 08:30:40;;;;;;;;;;;15.10;99.90;;;;;;4916285;29;19973;-74
2021/07/15 08:33:06;;;;;;;;;;;15.00;99.90;;;;;;4899611;29;20461;-75
2021/07/15 08:35:38;;;;;;;;;;;15.00;99.90;;;;;;4914875;29;19994;-74
2021/07/15 08:38:05;;;;;;;;;;;14.90;99.90;;;;;;4898354;29;20168;-75
2021/07/15 08:40:37;;;;;;;;;;;14.90;99.90;;;;;;4917210;29;20014;-75
2021/07/15 08:43:10;;;;;;;;;;;14.90;99.90;;;;;;4917740;29;19931;-74
2021/07/15 08:45:37;;;;;;;;;;;15.00;99.90;;;;;;4918081;29;19927;-75
2021/07/15 08:48:10;;;;;;;;;;;15.20;99.90;;;;;;4918118;29;20025;-75
2021/07/15 08:50:37;;;;;;;;;;;15.40;99.90;;;;;;4917862;29;19973;-75
2021/07/15 08:53:04;;;;;;;;;;;15.50;99.90;;;;;;4918981;29;19926;-74
2021/07/15 08:58:21;;;;;;;;;;;15.60;99.90;;;;;;4917657;29;19927;-75
2021/07/15 09:00:53;;;;;;;;;;;15.60;99.90;;;;;;4917276;29;19966;-75
2021/07/15 09:03:25;;;;;;;;;;;15.70;99.90;;;;;;4917709;29;19969;-74
2021/07/15 09:05:57;;;;;;;;;;;15.70;99.90;;;;;;4917652;29;19927;-74
2021/07/15 09:08:24;;;;;;;;;;;15.80;99.90;;;;;;4918917;29;20025;-75
2021/07/15 09:10:51;;;;;;;;;;;15.90;99.90;;;;;;4918434;29;20014;-75
2021/07/15 09:13:22;;;;;;;;;;;16.00;99.90;;;;;;4917040;29;20030;-75
2021/07/15 09:15:54;;;;;;;;;;;16.00;99.90;;;;;;4917457;29;20017;-75
2021/07/15 09:18:25;;;;;;;;;;;16.10;99.90;;;;;;4902338;29;19927;-74
2021/07/15 09:20:52;;;;;;;;;;;16.10;99.90;;;;;;4917257;29;20401;-75
2021/07/15 09:23:32;;;;;;;;;;;16.20;99.90;;;;;;4917265;29;19933;-74
2021/07/15 09:26:04;;;;;;;;;;;16.30;99.90;;;;;;4918677;29;20334;-75
2021/07/15 09:28:35;;;;;;;;;;;16.30;99.90;;;;;;4902137;29;19933;-74
2021/07/15 09:31:12;;;;;;;;;;;16.20;99.90;;;;;;4918103;29;20013;-74
2021/07/15 09:33:45;;;;;;;;;;;16.20;99.90;;;;;;4917082;29;19966;-74
2021/07/15 09:36:13;;;;;;;;;;;16.30;99.90;;;;;;4901667;29;19927;-75
2021/07/15 09:38:46;;;;;;;;;;;16.50;99.90;;;;;;4916957;29;19931;-75
2021/07/15 09:41:14;;;;;;;;;;;16.50;99.90;;;;;;4916769;29;19965;-75
2021/07/15 09:43:41;;;;;;;;;;;16.60;99.90;;;;;;4901272;29;20035;-75
2021/07/15 09:46:13;;;;;;;;;;;16.70;99.90;;;;;;4917000;29;19927;-75
2021/07/15 09:48:58;;;;;;;;;;;16.80;99.90;;;;;;4917055;29;20038;-75
2021/07/15 09:51:41;;;;;;;;;;;16.80;99.90;;;;;;4916148;29;20394;-74
2021/07/15 09:54:12;;;;;;;;;;;16.70;99.90;;;;;;4917041;29;20283;-75
2021/07/15 09:56:45;;;;;;;;;;;16.80;99.90;;;;;;4900964;29;19933;-74
2021/07/15 09:59:17;;;;;;;;;;;16.70;99.90;;;;;;4916509;29;19933;-75
2021/07/15 10:01:48;;;;;;;;;;;16.80;99.90;;;;;;4916304;29;19931;-75
2021/07/15 10:04:23;;;;;;;;;;;16.70;99.90;;;;;;4916841;29;19931;-75
2021/07/15 10:06:57;;;;;;;;;;;16.80;99.90;;;;;;4916731;29;19977;-75
2021/07/15 10:09:32;;;;;;;;;;;17.00;99.90;;;;;;4916946;29;19931;-75
2021/07/15 10:12:23;;;;;;;;;;;17.30;99.90;;;;;;4916243;29;19931;-75
2021/07/15 10:14:49;;;;;;;;;;;17.30;99.90;;;;;;4917670;29;20030;-75
2021/07/15 10:17:16;;;;;;;;;;;17.60;99.90;;;;;;4900942;29;19949;-75
2021/07/15 10:19:43;;;;;;;;;;;17.70;99.90;;;;;;4916060;29;19927;-75
2021/07/15 10:22:13;;;;;;;;;;;17.80;99.90;;;;;;4915752;29;19970;-76
2021/07/15 10:24:40;;;;;;;;;;;17.90;99.90;;;;;;4915946;29;19938;-75
2021/07/15 10:27:13;;;;;;;;;;;17.80;99.90;;;;;;4915898;29;19949;-74
2021/07/15 10:29:45;;;;;;;;;;;17.80;99.90;;;;;;4916007;29;19934;-75
2021/07/15 10:32:19;;;;;;;;;;;17.80;99.90;;;;;;4915718;29;20275;-75
2021/07/15 10:34:54;;;;;;;;;;;17.90;99.90;;;;;;4900914;29;20481;-75
2021/07/15 10:37:25;;;;;;;;;;;18.00;99.90;;;;;;4915763;29;19949;-75
2021/07/15 10:39:52;;;;;;;;;;;17.90;99.90;;;;;;4915936;29;19979;-75
2021/07/15 10:42:24;;;;;;;;;;;17.70;99.90;;;;;;4915440;29;19935;-74
2021/07/15 10:44:56;;;;;;;;;;;17.70;99.90;;;;;;4916729;29;19933;-74
2021/07/15 10:47:28;;;;;;;;;;;17.70;99.90;;;;;;4915613;29;20014;-74
2021/07/15 10:50:00;;;;;;;;;;;17.70;99.90;;;;;;4915657;29;19937;-74
2021/07/15 10:52:32;;;;;;;;;;;17.80;99.90;;;;;;4915107;29;19927;-74
2021/07/15 10:55:05;;;;;;;;;;;17.90;99.90;;;;;;4915607;29;19927;-75
2021/07/15 10:57:31;;;;;;;;;;;17.80;99.90;;;;;;4916545;29;19966;-74
2021/07/15 11:00:35;;;;;;;;;;;17.70;99.90;;;;;;4916714;29;19934;-74
2021/07/15 11:03:08;;;;;;;;;;;17.70;99.90;;;;;;4894149;29;19982;-74
2021/07/15 11:05:47;;;;;;;;;;;17.70;99.90;;;;;;4915546;29;19935;-74
2021/07/15 11:08:15;;;;;;;;;;;17.80;99.90;;;;;;4915354;29;20005;-74
2021/07/15 11:10:57;;;;;;;;;;;17.90;99.90;;;;;;4915577;29;20374;-75
2021/07/15 11:13:26;;;;;;;;;;;17.80;99.90;;;;;;4898849;29;20364;-73
2021/07/15 11:15:55;;;;;;;;;;;17.90;99.90;;;;;;4915182;29;20050;-74
2021/07/15 11:21:25;;;;;;;;;;;18.00;99.90;;;;;;4920292;29;19930;-74
2021/07/15 11:24:06;;;;;;;;;;;18.10;99.90;;;;;;4933590;29;19934;-74
2021/07/15 11:26:40;;;;;;;;;;;18.30;99.90;;;;;;4933346;29;20025;-74
2021/07/15 11:29:13;;;;;;;;;;;18.50;99.90;;;;;;4918182;29;20453;-74
2021/07/15 11:31:45;;;;;;;;;;;18.80;99.90;;;;;;4917816;29;19927;-75
2021/07/15 11:34:33;;;;;;;;;;;18.90;99.90;;;;;;4934757;29;20029;-74
2021/07/15 11:37:23;;;;;;;;;;;19.10;99.90;;;;;;4934451;29;20033;-74
2021/07/15 11:39:50;;;;;;;;;;;19.20;99.90;;;;;;4935256;29;19978;-74
2021/07/15 11:42:18;;;;;;;;;;;18.90;99.90;;;;;;4933212;29;19926;-74
2021/07/15 11:45:04;;;;;;;;;;;18.90;99.90;;;;;;4933603;29;19931;-74
2021/07/15 11:47:43;;;;;;;;;;;18.90;99.90;;;;;;4918225;29;20326;-74
2021/07/15 11:50:27;;;;;;;;;;;18.80;99.90;;;;;;4928940;29;19955;-74
2021/07/15 11:53:19;;;;;;;;;;;18.60;99.90;;;;;;4911257;29;20046;-73
2021/07/15 11:55:46;;;;;;;;;;;18.40;99.90;;;;;;4914638;29;20029;-75
2021/07/15 11:58:37;;;;;;;;;;;18.30;99.90;;;;;;4923709;29;19927;-75
2021/07/15 12:01:16;;;;;;;;;;;18.20;99.90;;;;;;4947858;29;20017;-75
2021/07/15 12:03:55;;;;;;;;;;;18.20;99.90;;;;;;4952073;29;19926;-75
2021/07/15 12:06:22;;;;;;;;;;;18.10;99.90;;;;;;4951666;29;19927;-74
2021/07/15 12:09:02;;;;;;;;;;;18.10;99.90;;;;;;4937530;28;19926;-75
2021/07/15 12:11:35;;;;;;;;;;;18.10;99.90;;;;;;4917461;29;20604;-74
2021/07/15 12:14:07;;;;;;;;;;;18.20;99.90;;;;;;4932551;29;20109;-74
2021/07/15 12:16:36;;;;;;;;;;;18.10;99.90;;;;;;4934185;29;19951;-74
2021/07/15 12:19:08;;;;;;;;;;;18.20;99.90;;;;;;4932772;29;20489;-74
2021/07/15 12:21:40;;;;;;;;;;;18.10;99.90;;;;;;4932798;29;19937;-74
2021/07/15 12:24:13;;;;;;;;;;;18.10;99.90;;;;;;4931967;29;20002;-75
2021/07/15 12:26:45;;;;;;;;;;;18.00;99.90;;;;;;4924731;29;19927;-74
2021/07/15 12:29:14;;;;;;;;;;;18.10;99.90;;;;;;4924678;29;19927;-75
2021/07/15 12:31:48;;;;;;;;;;;18.10;99.90;;;;;;4928941;29;19927;-75
2021/07/15 12:34:14;;;;;;;;;;;18.00;99.90;;;;;;4953436;28;19926;-75
2021/07/15 12:36:49;;;;;;;;;;;18.00;99.90;;;;;;4952037;29;19927;-74
2021/07/15 12:39:20;;;;;;;;;;;17.90;99.90;;;;;;4953110;29;20288;-75
2021/07/15 12:41:52;;;;;;;;;;;17.90;99.90;;;;;;4936252;29;19932;-74
2021/07/15 12:44:27;;;;;;;;;;;18.00;99.90;;;;;;4951928;29;19965;-75
2021/07/15 12:46:58;;;;;;;;;;;18.00;99.90;;;;;;4951802;29;19972;-75
2021/07/15 12:49:30;;;;;;;;;;;18.10;99.90;;;;;;4931774;29;20041;-75
2021/07/15 12:52:03;;;;;;;;;;;18.10;99.90;;;;;;4916362;29;19931;-73
2021/07/15 12:54:33;;;;;;;;;;;18.20;99.90;;;;;;4931578;29;19934;-74
2021/07/15 12:57:04;;;;;;;;;;;18.20;99.90;;;;;;4932253;29;20228;-74
2021/07/15 12:59:32;;;;;;;;;;;18.20;99.90;;;;;;4932149;29;19962;-75
2021/07/15 13:02:04;;;;;;;;;;;18.20;99.90;;;;;;4931634;29;19927;-74
2021/07/15 13:04:34;;;;;;;;;;;18.40;99.90;;;;;;4921846;29;19959;-74
2021/07/15 13:07:08;;;;;;;;;;;18.50;99.90;;;;;;4922974;29;19941;-75
2021/07/15 13:15:07;;;;;;;;;;;18.60;99.90;;;;;;4921653;29;19931;-75
2021/07/15 13:17:38;;;;;;;;;;;18.70;99.90;;;;;;4913441;29;19974;-77
2021/07/15 13:20:11;;;;;;;;;;;18.70;99.90;;;;;;4916508;29;20021;-73
2021/07/15 13:22:44;;;;;;;;;;;18.70;99.90;;;;;;4931721;29;19930;-75
2021/07/15 13:25:15;;;;;;;;;;;18.60;99.90;;;;;;4922113;29;20378;-74
2021/07/15 13:27:43;;;;;;;;;;;18.50;99.90;;;;;;4915828;29;20010;-74
2021/07/15 13:30:16;;;;;;;;;;;18.40;99.90;;;;;;4923438;29;19926;-74
2021/07/15 13:32:48;;;;;;;;;;;18.30;99.90;;;;;;4928169;29;19931;-75
2021/07/15 13:35:16;;;;;;;;;;;18.30;99.90;;;;;;4909171;29;19993;-73
2021/07/15 13:37:43;;;;;;;;;;;18.30;99.90;;;;;;4908606;29;20026;-74
2021/07/15 13:40:19;;;;;;;;;;;18.40;99.90;;;;;;4924251;29;20018;-74
2021/07/15 13:42:46;;;;;;;;;;;18.60;99.90;;;;;;4925294;29;19970;-74
2021/07/15 13:45:22;;;;;;;;;;;18.60;99.90;;;;;;4908418;29;19930;-74
2021/07/15 13:47:49;;;;;;;;;;;18.60;99.90;;;;;;4925985;29;20350;-74
2021/07/15 13:50:20;;;;;;;;;;;18.60;99.90;;;;;;4925670;29;19927;-74
2021/07/15 13:52:47;;;;;;;;;;;18.60;99.90;;;;;;4924688;29;20027;-73
2021/07/15 13:55:19;;;;;;;;;;;18.50;99.90;;;;;;4923293;29;19931;-74
2021/07/15 13:57:55;;;;;;;;;;;18.50;99.90;;;;;;4927106;29;19931;-75
2021/07/15 14:00:27;;;;;;;;;;;18.50;99.90;;;;;;4908357;29;19928;-74
2021/07/15 14:03:00;;;;;;;;;;;18.60;99.90;;;;;;4923068;29;19954;-73
2021/07/15 14:05:40;;;;;;;;;;;18.80;99.90;;;;;;4926721;29;19954;-74
2021/07/15 14:08:08;;;;;;;;;;;18.90;99.90;;;;;;4927790;29;19933;-74
2021/07/15 14:10:40;;;;;;;;;;;19.10;99.90;;;;;;4928850;29;19927;-73
2021/07/15 14:13:08;;;;;;;;;;;19.20;99.90;;;;;;4922387;29;20394;-74
2021/07/15 14:15:41;;;;;;;;;;;19.30;99.90;;;;;;4933376;29;19931;-74
2021/07/15 14:18:07;;;;;;;;;;;19.30;99.90;;;;;;4924026;29;19983;-75
2021/07/15 14:20:35;;;;;;;;;;;19.30;99.90;;;;;;4921065;29;20367;-75
2021/07/15 14:23:08;;;;;;;;;;;19.40;99.90;;;;;;4922807;29;20022;-74
2021/07/15 14:25:35;;;;;;;;;;;19.40;99.90;;;;;;4907740;29;19927;-74
2021/07/15 14:28:04;;;;;;;;;;;19.40;99.90;;;;;;4925083;29;20406;-75
2021/07/15 14:30:37;;;;;;;;;;;19.30;99.90;;;;;;4908830;29;19941;-74
2021/07/15 14:33:09;;;;;;;;;;;19.30;99.90;;;;;;4922599;29;20298;-74
2021/07/15 14:35:36;;;;;;;;;;;19.20;99.90;;;;;;4923256;29;19969;-75
2021/07/15 14:38:13;;;;;;;;;;;18.90;99.90;;;;;;4928300;29;19966;-73
2021/07/15 14:40:45;;;;;;;;;;;18.70;99.90;;;;;;4908014;29;20026;-74
2021/07/15 14:43:12;;;;;;;;;;;18.70;99.90;;;;;;4914901;29;19934;-73
2021/07/15 14:45:40;;;;;;;;;;;18.60;99.90;;;;;;4932999;29;19962;-75
2021/07/15 14:48:11;;;;;;;;;;;18.70;99.90;;;;;;4936404;29;20005;-75
2021/07/15 14:50:39;;;;;;;;;;;18.70;99.90;;;;;;4935031;29;20409;-73